^^
Datos históricos de la estación: Murcia-Puente Tocinos
Diario Informe para Julio 14, 2019 Unidades:  Ingés    Métrico   Ambas
Diario Semanal Mensual Anual
  Máxima: Mínima: Promedio:
Temperatura: 90.1 °F 72.3 °F 80.6 °F
Punto de rocio: 70.9 °F 64.8 °F 67.3 °F
Humedad: 82% 45% 66%
Velocidad viento: 13mph 0mph 4.6mph
Racha viento: 24.2mph - -
Viento- - ESE
Presión: 30.1 in 30 in -
Precipitación: 0 in    
 
 
Tabla de datos para Julio 14, 2019
Hora Temperatura Punto de rocio Presión Viento Velocidad viento Racha viento Humedad Intensidad lluvia(por hora) Nubes
00:04 76.6 °F 67.6 °F 30.1 in Este 1.8 mph 5 mph 73.8% 0 in
00:09 76.6 °F 67.3 °F 30 in NE 2 mph 5.2 mph 73.1% 0 in
00:14 76.6 °F 67.6 °F 30 in NE 2.4 mph 5.2 mph 74% 0 in
00:19 76.6 °F 67.6 °F 30.1 in NE 2.4 mph 5 mph 74% 0 in
00:24 76.5 °F 67.6 °F 30.1 in NE 2.4 mph 4.7 mph 74% 0 in
00:29 76.5 °F 67.6 °F 30.1 in NE 2.4 mph 5 mph 74% 0 in
00:34 76.5 °F 67.6 °F 30.1 in NE 2.4 mph 4 mph 74% 0 in
00:39 76.3 °F 67.5 °F 30.1 in NE 2.3 mph 4.6 mph 74% 0 in
00:44 76.3 °F 67.6 °F 30.1 in NE 2 mph 5 mph 74.5% 0 in
00:49 76.1 °F 67.6 °F 30.1 in NE 2.2 mph 5 mph 75% 0 in
00:54 75.9 °F 67.5 °F 30.1 in NE 2.9 mph 5 mph 75% 0 in
00:59 75.9 °F 67.5 °F 30.1 in NE 2.7 mph 4.6 mph 75% 0 in
01:04 75.9 °F 67.5 °F 30.1 in NE 2.4 mph 5 mph 75% 0 in
01:09 75.7 °F 67.3 °F 30.1 in NE 2.5 mph 5.2 mph 75% 0 in
01:14 75.7 °F 67.6 °F 30.1 in NE 2.9 mph 5 mph 76% 0 in
01:19 75.6 °F 67.5 °F 30.1 in NE 2.9 mph 5.9 mph 76% 0 in
01:24 75.6 °F 67.5 °F 30.1 in NE 2.9 mph 6 mph 76% 0 in
01:29 75.4 °F 67.5 °F 30.1 in NE 2.9 mph 5 mph 76.4% 0 in
01:34 75.4 °F 67.6 °F 30.1 in NE 3.1 mph 5 mph 77% 0 in
01:39 75.4 °F 67.6 °F 30.1 in NNE 3 mph 5.2 mph 76.8% 0 in
01:44 75.4 °F 67.3 °F 30.1 in NNE 2.9 mph 5 mph 76% 0 in
01:49 75.2 °F 67.3 °F 30.1 in NNE 2.9 mph 5 mph 76.4% 0 in
01:54 75 °F 67.3 °F 30.1 in NE 2.9 mph 5 mph 77% 0 in
01:59 74.8 °F 67.1 °F 30.1 in NE 3 mph 5 mph 77% 0 in
02:04 74.8 °F 67.3 °F 30.1 in NE 3.1 mph 5 mph 77.4% 0 in
02:09 74.8 °F 67.5 °F 30.1 in NE 2.9 mph 5 mph 78% 0 in
02:14 74.8 °F 67.5 °F 30.1 in NE 2.4 mph 4 mph 78% 0 in
02:19 74.8 °F 67.5 °F 30.1 in NE 1.8 mph   78% 0 in
02:24 74.8 °F 67.1 °F 30.1 in Calm   2.9 mph 77% 0 in
02:29 74.8 °F 67.1 °F 30.1 in Calm   3 mph 77% 0 in
02:34 74.7 °F 67.1 °F 30.1 in Calm   3.6 mph 77.4% 0 in
02:39 74.7 °F 67.3 °F 30.1 in NNE 0.4 mph 4 mph 78% 0 in
02:44 74.7 °F 67.3 °F 30.1 in North 1.8 mph 4.6 mph 78% 0 in
02:49 74.5 °F 67.3 °F 30.1 in NNO 1.8 mph 5 mph 78% 0 in
02:54 74.5 °F 67.1 °F 30 in NNO 1.8 mph 3 mph 78% 0 in
02:59 74.3 °F 67.1 °F 30 in NNO 1.7 mph 3.5 mph 78% 0 in
03:04 74.3 °F 66.9 °F 30 in NNO 1.4 mph 3.5 mph 78% 0 in
03:09 74.1 °F 66.7 °F 30 in NNO 1.4 mph 3 mph 78% 0 in
03:14 74.1 °F 66.7 °F 30 in NNO 1.4 mph   78% 0 in
03:19 74.1 °F 66.7 °F 30 in NO 1 mph   78% 0 in
03:24 74.1 °F 67.1 °F 30 in Calm     78.8% 0 in
03:29 74.1 °F 67.3 °F 30 in Calm     79% 0 in
03:34 74.1 °F 67.1 °F 30 in Calm     79% 0 in
03:39 73.9 °F 67.1 °F 30 in Calm     79% 0 in
03:44 73.9 °F 67.3 °F 30 in Calm   4 mph 79.6% 0 in
03:49 73.9 °F 67.5 °F 30 in NE 0.4 mph 5 mph 80% 0 in
03:54 73.9 °F 67.3 °F 30 in NE 1.4 mph 5 mph 79.9% 0 in
03:59 73.9 °F 67.5 °F 30 in NE 1.9 mph 5 mph 80% 0 in
04:04 73.8 °F 67.3 °F 30 in NE 2.9 mph 5 mph 80% 0 in
04:09 73.8 °F 67.3 °F 30 in NE 2.9 mph 5 mph 80% 0 in
04:14 73.8 °F 67.3 °F 30 in NNE 3.1 mph 5.2 mph 80% 0 in
04:19 73.6 °F 67.1 °F 30 in NNE 3 mph 5 mph 80% 0 in
04:24 73.6 °F 66.9 °F 30 in NNE 2.9 mph 5 mph 80% 0 in
04:29 73.2 °F 66.7 °F 30 in North 2.7 mph 4.6 mph 80% 0 in
04:34 73.2 °F 66.7 °F 30 in NNE 2 mph 5 mph 80% 0 in
04:39 73.2 °F 66.7 °F 30 in North 1.9 mph 3.6 mph 80% 0 in
04:44 73.2 °F 66.7 °F 30 in NE 1.8 mph 4.7 mph 80% 0 in
04:49 73 °F 66.6 °F 30 in NE 2.2 mph 5.2 mph 80% 0 in
04:54 73 °F 66.6 °F 30 in ENE 3.1 mph 5 mph 80% 0 in
04:59 72.9 °F 66.4 °F 30 in Este 3 mph 5 mph 80% 0 in
05:04 72.7 °F 66.4 °F 30 in ESE 2.9 mph 5 mph 80.7% 0 in
05:09 72.7 °F 66.4 °F 30 in Este 2.6 mph 5 mph 81% 0 in
05:14 72.5 °F 66.2 °F 30 in SE 1.8 mph 3.6 mph 81.1% 0 in
05:19 72.3 °F 66.6 °F 30 in SE 1.8 mph 4 mph 82% 0 in
05:24 72.3 °F 66.6 °F 30 in SE 1.8 mph 2.3 mph 82% 0 in
05:29 72.5 °F 66.7 °F 30 in SE 1.3 mph 2 mph 82% 0 in
05:34 72.5 °F 66.6 °F 30 in Calm   1.4 mph 82% 0 in
05:39 72.5 °F 66.6 °F 30 in Calm   3.5 mph 81.8% 0 in
05:44 72.5 °F 66.4 °F 30 in Calm   3.5 mph 81% 0 in
05:49 72.5 °F 66.4 °F 30 in Calm   3 mph 81% 0 in
05:54 72.5 °F 66.4 °F 30 in Calm   1.4 mph 81% 0 in
05:59 72.5 °F 66.4 °F 30 in Calm   1 mph 81% 0 in
06:04 72.5 °F 66.4 °F 30 in Calm     81% 0 in
06:09 72.5 °F 66.4 °F 30 in Calm     81% 0 in
06:14 72.5 °F 66.4 °F 30 in Calm     81% 0 in
06:19 72.5 °F 66.4 °F 30 in Calm     81% 0 in
06:24 72.5 °F 66.4 °F 30 in Calm     81% 0 in
06:29 72.7 °F 66.4 °F 30 in Calm     81% 0 in
06:34 72.7 °F 66.4 °F 30 in Calm   1.4 mph 81% 0 in
06:39 72.7 °F 66.4 °F 30 in Calm   1 mph 81% 0 in
06:44 72.7 °F 66.6 °F 30 in Calm     81% 0 in
06:49 72.7 °F 66.6 °F 30 in Calm     81% 0 in
06:54 72.7 °F 66.6 °F 30 in Calm     81% 0 in
06:59 72.5 °F 66.4 °F 30 in Calm     81% 0 in
07:04 72.5 °F 66.4 °F 30.1 in Calm     81% 0 in
07:09 72.3 °F 66.2 °F 30.1 in Calm     81% 0 in
07:14 72.3 °F 66.2 °F 30.1 in Calm     81% 0 in
07:19 72.3 °F 66.2 °F 30.1 in Calm     81% 0 in
07:24 72.3 °F 66.2 °F 30.1 in Calm     81% 0 in
07:29 72.3 °F 66.2 °F 30.1 in Calm     81% 0 in
07:34 72.3 °F 66.2 °F 30.1 in Calm     81% 0 in
07:39 72.3 °F 66.4 °F 30.1 in Calm     81.3% 0 in
07:44 72.3 °F 66.4 °F 30.1 in Calm     81.5% 0 in
07:49 72.5 °F 66.2 °F 30.1 in Calm     81% 0 in
07:54 72.7 °F 66.4 °F 30.1 in Calm     81% 0 in
07:59 72.7 °F 66.4 °F 30.1 in Calm     80.4% 0 in
08:04 72.9 °F 66.2 °F 30.1 in Calm     80% 0 in
08:09 73 °F 66.7 °F 30.1 in Calm     80.5% 0 in
08:14 73.4 °F 66.7 °F 30.1 in Calm     79.3% 0 in
08:19 73.8 °F 66.7 °F 30.1 in Calm   3.6 mph 78.6% 0 in
08:24 73.9 °F 66.4 °F 30.1 in Calm   5.8 mph 77.1% 0 in
08:29 74.1 °F 66.4 °F 30.1 in Sur 0.8 mph 6 mph 77% 0 in
08:34 74.1 °F 66.4 °F 30.1 in Sur 2.9 mph 6 mph 77% 0 in
08:39 74.1 °F 66.4 °F 30.1 in Sur 3 mph 6 mph 77% 0 in
08:44 74.1 °F 66.4 °F 30.1 in SSO 3.6 mph 6 mph 77% 0 in
08:49 74.3 °F 66.4 °F 30.1 in SSO 3.6 mph 6.2 mph 76.4% 0 in
08:54 74.5 °F 66.6 °F 30.1 in SSO 3.6 mph 6 mph 76.2% 0 in
08:59 74.7 °F 66.6 °F 30.1 in SSO 3.6 mph 6 mph 76% 0 in
09:04 74.8 °F 66.7 °F 30.1 in SO 3.6 mph 6 mph 76% 0 in
09:09 75 °F 66.9 °F 30.1 in Sur 3.3 mph 5.4 mph 76% 0 in
09:14 75.4 °F 66.9 °F 30.1 in Sur 2.4 mph 6 mph 75% 0 in
09:19 75.6 °F 67.1 °F 30.1 in OSO 2.5 mph 6 mph 74.7% 0 in
09:24 75.7 °F 66.9 °F 30.1 in Oeste 2.9 mph 5 mph 74.2% 0 in
09:29 75.7 °F 67.3 °F 30.1 in OSO 2.9 mph 5 mph 74.9% 0 in
09:34 75.9 °F 67.3 °F 30.1 in SO 2.9 mph 5 mph 74.5% 0 in
09:39 76.3 °F 67.5 °F 30.1 in SSO 2.7 mph 5.2 mph 74% 0 in
09:44 76.6 °F 67.5 °F 30.1 in Oeste 2 mph 6.2 mph 73.4% 0 in
09:49 76.6 °F 67.5 °F 30.1 in Oeste 2.3 mph 6 mph 73.4% 0 in
09:54 76.6 °F 67.6 °F 30.1 in NO 3.1 mph 5.9 mph 73.8% 0 in
09:59 76.8 °F 67.6 °F 30.1 in ONO 2.9 mph 6 mph 73.5% 0 in
10:04 77.2 °F 67.8 °F 30.1 in OSO 2.4 mph 5 mph 73% 0 in
10:09 77.4 °F 68 °F 30.1 in Oeste 2.4 mph 5.2 mph 72.8% 0 in
10:14 77.5 °F 67.8 °F 30.1 in OSO 2.4 mph 5 mph 72.2% 0 in
10:19 77.7 °F 67.8 °F 30.1 in SSO 2.4 mph 5 mph 71.7% 0 in
10:24 78.1 °F 68 °F 30.1 in OSO 2.4 mph 5.9 mph 70.9% 0 in
10:29 78.3 °F 67.6 °F 30.1 in Oeste 2.5 mph 6.2 mph 70% 0 in
10:34 78.3 °F 67.5 °F 30.1 in Oeste 2.9 mph 6.2 mph 69.5% 0 in
10:39 78.3 °F 67.5 °F 30.1 in NO 2.9 mph 6 mph 69.2% 0 in
10:44 78.4 °F 67.5 °F 30.1 in NNO 3.1 mph 5 mph 69% 0 in
10:49 79.2 °F 67.8 °F 30.1 in NE 2.7 mph 5.2 mph 68.4% 0 in
10:54 79.9 °F 67.8 °F 30.1 in ESE 1.8 mph 5.2 mph 66.6% 0 in
10:59 80.2 °F 67.8 °F 30.1 in Este 2.2 mph 5 mph 65.9% 0 in
11:04 80.8 °F 68 °F 30.1 in Este 3.1 mph 5 mph 65.2% 0 in
11:09 81.1 °F 68 °F 30.1 in ENE 2.7 mph 5.4 mph 64.3% 0 in
11:14 81.7 °F 68.2 °F 30.1 in NE 1.8 mph 6.9 mph 63.6% 0 in
11:19 81.7 °F 68 °F 30.1 in NNE 2.2 mph 7.6 mph 63.4% 0 in
11:24 81.7 °F 68 °F 30.1 in NNE 3.6 mph 8.1 mph 63.4% 0 in
11:29 81.7 °F 67.8 °F 30.1 in ENE 3.7 mph 8 mph 63% 0 in
11:34 82 °F 68 °F 30.1 in NNE 4 mph 7.4 mph 62.4% 0 in
11:39 82.4 °F 68 °F 30.1 in NNO 3.9 mph 7 mph 62% 0 in
11:44 82.6 °F 68 °F 30.1 in NNE 3.6 mph 9.7 mph 61.5% 0 in
11:49 82.2 °F 67.8 °F 30.1 in ENE 4 mph 10 mph 61.6% 0 in
11:54 82.2 °F 68 °F 30.1 in ESE 5.2 mph 9 mph 62.1% 0 in
11:59 82.6 °F 68 °F 30.1 in NNE 4.8 mph 8.1 mph 61.6% 0 in
12:04 82.9 °F 67.8 °F 30.1 in NE 4 mph 9.2 mph 60.6% 0 in
12:09 82.9 °F 67.6 °F 30.1 in ENE 3.7 mph 9 mph 60% 0 in
12:14 83.3 °F 67.8 °F 30.1 in NE 3.1 mph 11.5 mph 59.9% 0 in
12:19 83.1 °F 67.3 °F 30.1 in Este 3.7 mph 12 mph 59.1% 0 in
12:24 83.3 °F 67.5 °F 30.1 in North 5.4 mph 7 mph 58.9% 0 in
12:29 83.8 °F 67.5 °F 30.1 in NE 4.9 mph 9.2 mph 58.1% 0 in
12:34 84 °F 67.5 °F 30.1 in North 3.6 mph 9.2 mph 57.6% 0 in
12:39 84.2 °F 67.5 °F 30 in NE 3.9 mph 11.5 mph 57.4% 0 in
12:44 84.4 °F 67.5 °F 30 in NE 4.7 mph 12 mph 56.9% 0 in
12:49 84.6 °F 67.1 °F 30 in ENE 4.8 mph 9.2 mph 56% 0 in
12:54 84.7 °F 67.3 °F 30 in ESE 5.2 mph 9 mph 56.3% 0 in
12:59 85.3 °F 67.5 °F 30 in NE 4.5 mph 8.1 mph 55.1% 0 in
13:04 86 °F 66.9 °F 30 in ENE 2.9 mph 8 mph 53.2% 0 in
13:09 86.4 °F 66.2 °F 30 in NE 3.4 mph 11.2 mph 51.1% 0 in
13:14 86.2 °F 66 °F 30 in Este 4.7 mph 13 mph 51% 0 in
13:19 86.4 °F 66 °F 30 in Este 4.9 mph 13 mph 51.1% 0 in
13:24 86.5 °F 66.2 °F 30 in ESE 5.4 mph 9.2 mph 50.7% 0 in
13:29 86.7 °F 66.2 °F 30 in ENE 5.2 mph 12.7 mph 50.6% 0 in
13:34 86.7 °F 66.2 °F 30 in NE 4.7 mph 13 mph 50.5% 0 in
13:39 86.7 °F 65.8 °F 30 in NNO 4.6 mph 10 mph 50% 0 in
13:44 86.7 °F 65.8 °F 30 in ONO 4.3 mph 7.4 mph 50% 0 in
13:49 87.1 °F 66.2 °F 30 in NE 4 mph 7 mph 50.1% 0 in
13:54 87.8 °F 66.4 °F 30 in ESE 3.1 mph 8.1 mph 49.1% 0 in
13:59 88.3 °F 66.4 °F 30 in Este 3.6 mph 9.7 mph 48.4% 0 in
14:04 88.2 °F 66 °F 30 in ESE 4.7 mph 14 mph 48.1% 0 in
14:09 88.2 °F 66.2 °F 30 in ENE 5 mph 14 mph 48.5% 0 in
14:14 88.3 °F 66.2 °F 30 in ENE 5.9 mph 10 mph 48.1% 0 in
14:19 88.5 °F 66.2 °F 30 in ENE 5.5 mph 11.2 mph 48% 0 in
14:24 88.5 °F 66.2 °F 30 in Este 4.3 mph 14.7 mph 47.8% 0 in
14:29 88.5 °F 66.2 °F 30 in SSE 4.8 mph 15 mph 47.6% 0 in
14:34 88.9 °F 65.7 °F 30 in Sur 6.4 mph 13 mph 46.5% 0 in
14:39 89.2 °F 65.8 °F 30 in NO 5.8 mph 9 mph 46.1% 0 in
14:44 89.8 °F 65.8 °F 30 in Este 4 mph 10 mph 45.4% 0 in
14:49 90 °F 65.7 °F 30 in SE 4.3 mph 12.7 mph 45% 0 in
14:54 89.6 °F 65.8 °F 30 in SE 5.2 mph 13 mph 45.5% 0 in
14:59 89.8 °F 66 °F 30 in NE 5.4 mph 11.5 mph 45.7% 0 in
15:04 90 °F 66.2 °F 30 in SSE 5.9 mph 12.7 mph 45.8% 0 in
15:09 90.1 °F 66.4 °F 30 in ESE 5.8 mph 13 mph 45.7% 0 in
15:14 90.1 °F 66.6 °F 30 in SSE 5.4 mph 13.8 mph 46% 0 in
15:19 90.1 °F 66.6 °F 30 in SE 5.7 mph 14 mph 46.2% 0 in
15:24 90.1 °F 66.9 °F 30 in SE 6.4 mph 14 mph 46.5% 0 in
15:29 90.1 °F 67.1 °F 30 in SO 6.3 mph 13 mph 46.9% 0 in
15:34 90.1 °F 67.5 °F 30 in ESE 5.9 mph 15.2 mph 47.4% 0 in
15:39 90 °F 67.5 °F 30 in ESE 6.3 mph 15 mph 47.8% 0 in
15:44 90.1 °F 68.2 °F 30 in ESE 7.4 mph 16.8 mph 48.5% 0 in
15:49 90 °F 68 °F 30 in ESE 7.9 mph 20.7 mph 48.4% 0 in
15:54 89.8 °F 68 °F 30 in ESE 9.2 mph 21 mph 49% 0 in
15:59 90 °F 67.8 °F 30 in SE 9.2 mph 18.4 mph 48.3% 0 in
16:04 90 °F 68.4 °F 30 in ESE 9.2 mph 20.7 mph 49.3% 0 in
16:09 89.4 °F 68.2 °F 30 in ESE 10.2 mph 21.9 mph 49.8% 0 in
16:14 89.4 °F 68.4 °F 30 in SE 13 mph 22 mph 50% 0 in
16:19 89.4 °F 68.4 °F 30 in ESE 12.6 mph 23 mph 50% 0 in
16:24 89.6 °F 68 °F 30 in ESE 11.4 mph 23 mph 49.1% 0 in
16:29 89.8 °F 68.4 °F 30 in ESE 11.5 mph 20.7 mph 49.4% 0 in
16:34 89.6 °F 68 °F 30 in ESE 11.8 mph 21 mph 49.2% 0 in
16:39 89.8 °F 68.2 °F 30 in SE 11.5 mph 20.7 mph 49% 0 in
16:44 89.6 °F 67.6 °F 30 in SE 10.7 mph 21.3 mph 48.8% 0 in
16:49 89.4 °F 67.6 °F 30 in ESE 10.8 mph 21 mph 48.9% 0 in
16:54 89.4 °F 67.6 °F 30 in ESE 11.2 mph 18.1 mph 48.9% 0 in
16:59 89.4 °F 67.6 °F 30 in ESE 11.2 mph 20.8 mph 49% 0 in
17:04 89.1 °F 67.3 °F 30 in ESE 11.2 mph 24.2 mph 48.9% 0 in
17:09 88.9 °F 67.1 °F 30 in SE 11.7 mph 24 mph 49.1% 0 in
17:14 88.9 °F 67.3 °F 30 in ESE 13 mph 21.3 mph 49% 0 in
17:19 89.1 °F 66.9 °F 30 in ESE 12.7 mph 21 mph 48.1% 0 in
17:24 89.1 °F 67.1 °F 30 in ESE 11.8 mph 23.5 mph 48.4% 0 in
17:29 88.9 °F 67.3 °F 30 in ESE 11.8 mph 23 mph 49% 0 in
17:34 88.9 °F 66.9 °F 30 in ESE 11.8 mph 21 mph 48.7% 0 in
17:39 88.5 °F 66.9 °F 30 in ESE 11.4 mph 20 mph 49% 0 in
17:44 88.9 °F 67.3 °F 30 in ESE 10.2 mph 20.7 mph 49.1% 0 in
17:49 88.5 °F 67.5 °F 30 in ESE 10.2 mph 21 mph 49.8% 0 in
17:54 88.7 °F 67.1 °F 30 in ESE 10.2 mph 20 mph 49.1% 0 in
17:59 88.9 °F 67.3 °F 30 in SE 10.4 mph 18.4 mph 49.2% 0 in
18:04 88.5 °F 66.7 °F 30 in ESE 10.7 mph 18 mph 48.5% 0 in
18:09 88.9 °F 67.1 °F 30 in ESE 10.2 mph 18.5 mph 48.7% 0 in
18:14 88.9 °F 66.7 °F 30 in ESE 8.7 mph 19 mph 48.3% 0 in
18:19 88.9 °F 67.1 °F 30 in ESE 8.8 mph 18.5 mph 49% 0 in
18:24 88.9 °F 67.1 °F 30 in ESE 9.2 mph 19 mph 48.8% 0 in
18:29 89.1 °F 66.9 °F 30 in ESE 9.2 mph 19 mph 48.3% 0 in
18:34 88.7 °F 67.1 °F 30 in ESE 9.2 mph 19 mph 49% 0 in
18:39 88.5 °F 66.9 °F 30 in ESE 9.4 mph 18 mph 48.9% 0 in
18:44 88.5 °F 66.9 °F 30 in SE 10 mph 16.3 mph 49% 0 in
18:49 88.3 °F 67.3 °F 30 in ESE 10.2 mph 20.7 mph 49.8% 0 in
18:54 88.2 °F 67.1 °F 30 in ESE 10.7 mph 21 mph 49.9% 0 in
18:59 88.2 °F 66.7 °F 30 in ESE 10.4 mph 16.8 mph 49.1% 0 in
19:04 88.2 °F 67.1 °F 30 in ESE 9.7 mph 17.5 mph 49.9% 0 in
19:09 88 °F 67.1 °F 30 in ESE 9.6 mph 17.5 mph 50% 0 in
19:14 88 °F 67.1 °F 30 in ESE 9.2 mph 17 mph 50.1% 0 in
19:19 87.6 °F 66.7 °F 30 in ESE 9.3 mph 19.7 mph 50% 0 in
19:24 87.6 °F 66.7 °F 30 in ESE 9.7 mph 20 mph 50% 0 in
19:29 87.4 °F 66.4 °F 30 in ESE 9.8 mph 18.4 mph 49.8% 0 in
19:34 87.4 °F 66.4 °F 30 in ESE 10.2 mph 18 mph 49.9% 0 in
19:39 87.4 °F 66.4 °F 30 in ESE 9.8 mph 15.2 mph 49.9% 0 in
19:44 87.3 °F 66.4 °F 30 in ESE 8.7 mph 15.2 mph 50% 0 in
19:49 87.3 °F 66 °F 30 in ESE 8.7 mph 15 mph 49.2% 0 in
19:54 87.3 °F 66 °F 30 in SE 8.7 mph 15 mph 49.4% 0 in
19:59 87.3 °F 66 °F 30 in ESE 8.2 mph 13.8 mph 49.6% 0 in
20:04 86.7 °F 66.2 °F 30 in ESE 6.9 mph 14 mph 50.4% 0 in
20:09 86.5 °F 66.2 °F 30 in ESE 7.3 mph 16.1 mph 51% 0 in
20:14 86.4 °F 66 °F 30 in ESE 8.5 mph 16 mph 51% 0 in
20:19 86.2 °F 65.8 °F 30 in SE 8.4 mph 14 mph 51% 0 in
20:24 86.2 °F 66.2 °F 30 in SE 8.1 mph 12 mph 51.5% 0 in
20:29 86 °F 66.4 °F 30 in ESE 7.5 mph 9.2 mph 52% 0 in
20:34 86 °F 66.2 °F 30 in ESE 5.9 mph 11.5 mph 52% 0 in
20:39 85.6 °F 66.4 °F 30 in ESE 6 mph 12.7 mph 52.9% 0 in
20:44 85.3 °F 66 °F 30 in ESE 6.4 mph 13 mph 52.6% 0 in
20:49 85.3 °F 65.5 °F 30 in ESE 6.2 mph 10.7 mph 51.7% 0 in
20:54 84.9 °F 64.8 °F 30 in ESE 5.4 mph 11 mph 51% 0 in
20:59 84.7 °F 64.8 °F 30 in ESE 5.7 mph 10.4 mph 51% 0 in
21:04 84.7 °F 65.1 °F 30 in ESE 6.4 mph 10 mph 51.8% 0 in
21:09 84.7 °F 65.3 °F 30 in ESE 6.3 mph 9.7 mph 52.1% 0 in
21:14 84.6 °F 65.7 °F 30 in ESE 5.9 mph 10.7 mph 53.4% 0 in
21:19 84.2 °F 65.8 °F 30 in ESE 6 mph 11 mph 54.3% 0 in
21:24 83.8 °F 66 °F 30 in Este 6.4 mph 10 mph 55% 0 in
21:29 83.7 °F 65.8 °F 30 in ENE 6 mph 8.1 mph 55% 0 in
21:34 83.7 °F 66.2 °F 30 in ENE 4.7 mph 8 mph 55.9% 0 in
21:39 83.5 °F 66 °F 30 in NE 4.2 mph 6.4 mph 56% 0 in
21:44 83.1 °F 66.2 °F 30 in NNE 3.1 mph 8.5 mph 56.8% 0 in
21:49 82.8 °F 66.4 °F 30 in NNE 3.9 mph 11.5 mph 58% 0 in
21:54 82.2 °F 67.3 °F 30 in NNE 5.9 mph 12 mph 60.5% 0 in
21:59 81.7 °F 68.2 °F 30 in NE 6.3 mph 12 mph 64% 0 in
22:04 81.1 °F 68.7 °F 30 in NE 7.4 mph 12 mph 65.7% 0 in
22:09 81 °F 69.1 °F 30 in NNE 7.1 mph 11.8 mph 67.3% 0 in
22:14 80.4 °F 69.3 °F 30 in NNE 6.2 mph 13.5 mph 68.9% 0 in
22:19 80.1 °F 69.6 °F 30 in NNE 6.8 mph 14 mph 70.4% 0 in
22:24 79.7 °F 69.6 °F 30 in NE 8.5 mph 14.5 mph 71.4% 0 in
22:29 79.5 °F 69.6 °F 30 in NE 8.4 mph 15 mph 72% 0 in
22:34 79.3 °F 69.8 °F 30 in NE 8.1 mph 15 mph 72.9% 0 in
22:39 79.2 °F 70 °F 30 in NE 8 mph 13 mph 73.2% 0 in
22:44 79 °F 70.2 °F 30 in NE 7.6 mph 13 mph 74.2% 0 in
22:49 78.8 °F 70.2 °F 30 in NNE 7.6 mph 13.8 mph 75% 0 in
22:54 78.6 °F 70.3 °F 30 in NNE 7.6 mph 14 mph 75.9% 0 in
22:59 78.4 °F 70.3 °F 30 in NNE 7.5 mph 16.1 mph 76.4% 0 in
23:04 78.3 °F 70.5 °F 30 in NE 7.4 mph 16 mph 77.1% 0 in
23:09 78.1 °F 70.7 °F 30 in NNE 7.6 mph 14 mph 78% 0 in
23:14 77.7 °F 70.3 °F 30 in NE 8.1 mph 13 mph 78% 0 in
23:19 77.7 °F 70.3 °F 30 in NE 8.1 mph 13 mph 78.3% 0 in
23:24 77.7 °F 70.2 °F 30 in NE 8.1 mph 12 mph 78% 0 in
23:29 77.7 °F 70.3 °F 30 in NE 7.6 mph 10 mph 78% 0 in
23:34 77.7 °F 70.3 °F 30 in NE 6.2 mph 9.2 mph 78% 0 in
23:39 77.5 °F 70.2 °F 30 in NE 6.1 mph 12.3 mph 78.3% 0 in
23:44 77.5 °F 70.5 °F 30 in NE 5.9 mph 13 mph 79.3% 0 in
23:49 77.4 °F 70.7 °F 30 in NNE 6.2 mph 13 mph 80% 0 in
23:54 77.2 °F 70.7 °F 30 in NE 6.9 mph 11 mph 80.5% 0 in
23:59 77.2 °F 70.9 °F 30 in NNE 7.1 mph 11.5 mph 81% 0 in
Murcia-Puente Tocinos, España
Compliments of Weather Underground - 3 mb

La estación de MeteoMurcia.com, publica sus datos en los siguientes proyectos:

Weather Underground PWS IMURCIAP2 Meteoclimatic www.awekas.at

W3Counter
Web Analytics